Terminal Aerodrome Forecast
Issued by NWS Wilmington, NC

Home | Current Version | Previous Version | Text Only | Print | Product List | Glossary On
Versions: 1 2 3 4 5 6 7 8 9 10 11 12 13 14 15 16
000
FTUS42 KILM 301100 CCA
TAFLBT
TAF COR
KLBT 301148Z 3012/3112 00000KT 6SM BR BKN005
     FM301500 15008KT P6SM SCT040
     FM310600 VRB03KT 3SM BR SCT050
     FM310900 VRB03KT 1SM BR SCT003 OVC008=

USA.gov is the U.S. government's official web portal to all federal, state and local government web resources and services.